Time;durP1;ratioP1;P1;durP2;ratioP2;P2;SDS_P1;SDS_P2;PMS_P1;PMS_P2;Temp;Humidity;BMP_temperature;BMP_pressure;BME280_temperature;BME280_humidity;BME280_pressure;Samples;Min_cycle;Max_cycle;Signal;HPM_P1;HPM_P2
2023/03/28 00:01:59;;;;;;;2.47;0.43;;;;;;;6.80;56.11;101284.66;5058942;27;96804;-74
2023/03/28 00:04:28;;;;;;;1.05;0.38;;;;;;;6.85;57.51;101284.59;5055780;27;99081;-74
2023/03/28 00:06:55;;;;;;;0.85;0.20;;;;;;;6.21;57.31;101293.16;5053916;27;98857;-73
2023/03/28 00:09:24;;;;;;;0.30;0.30;;;;;;;5.60;59.72;101293.59;5051548;27;97304;-73
2023/03/28 00:11:51;;;;;;;2.20;0.25;;;;;;;5.52;60.86;101286.63;5054682;27;97086;-73
2023/03/28 00:14:17;;;;;;;3.13;0.43;;;;;;;5.51;61.28;101306.72;5060620;27;101695;-73
2023/03/28 00:16:45;;;;;;;2.55;0.95;;;;;;;5.52;62.48;101291.88;5049784;27;98917;-74
2023/03/28 00:19:15;;;;;;;2.72;0.30;;;;;;;5.76;62.50;101283.00;5050350;27;96861;-74
2023/03/28 00:21:45;;;;;;;3.25;0.20;;;;;;;5.87;62.04;101278.53;5058829;27;96817;-74
2023/03/28 00:24:13;;;;;;;0.60;0.47;;;;;;;5.98;62.26;101284.59;5054180;27;100761;-75
2023/03/28 00:26:42;;;;;;;1.23;0.40;;;;;;;5.46;63.88;101289.28;5055173;27;98874;-74
2023/03/28 00:29:14;;;;;;;2.63;0.30;;;;;;;5.62;63.08;101290.97;5057830;27;97591;-74
2023/03/28 00:31:41;;;;;;;1.70;0.65;;;;;;;5.85;61.53;101293.41;5050284;27;97419;-75
2023/03/28 00:34:08;;;;;;;6.20;0.40;;;;;;;6.01;60.78;101295.06;5049770;27;99340;-75
2023/03/28 00:36:38;;;;;;;3.20;0.82;;;;;;;6.26;59.75;101306.22;5059098;27;97604;-74
2023/03/28 00:39:05;;;;;;;2.70;0.50;;;;;;;6.43;58.51;101299.06;5059035;27;96833;-76
2023/03/28 00:41:34;;;;;;;1.88;0.50;;;;;;;6.33;57.40;101313.16;5050407;27;96865;-75
2023/03/28 00:44:22;;;;;;;6.65;0.20;;;;;;;6.31;57.02;101321.03;5051688;27;99970;-75
2023/03/28 00:46:49;;;;;;;1.92;0.43;;;;;;;6.17;57.32;101312.41;5048004;27;97986;-75
2023/03/28 00:49:20;;;;;;;5.45;0.43;;;;;;;6.39;56.89;101319.22;5061354;27;97023;-74
2023/03/28 00:51:51;;;;;;;1.30;0.30;;;;;;;6.59;55.84;101320.78;5050997;27;97547;-75
2023/03/28 00:54:19;;;;;;;1.85;0.35;;;;;;;6.34;55.99;101320.16;5061860;27;99253;-74
2023/03/28 00:56:48;;;;;;;5.65;0.55;;;;;;;6.38;55.84;101324.47;5050985;27;98843;-74
2023/03/28 00:59:19;;;;;;;3.58;0.50;;;;;;;6.24;55.90;101323.72;5062955;27;96769;-75
2023/03/28 01:01:46;;;;;;;2.90;0.40;;;;;;;6.32;55.46;101328.03;5061200;27;97814;-74
2023/03/28 01:04:19;;;;;;;4.68;0.60;;;;;;;6.48;55.50;101338.41;5049052;27;99176;-75
2023/03/28 01:06:47;;;;;;;1.92;0.40;;;;;;;6.48;55.06;101338.41;5052157;27;99123;-74
2023/03/28 01:09:16;;;;;;;2.35;0.65;;;;;;;6.39;55.27;101340.22;5050707;27;97056;-75
2023/03/28 01:11:45;;;;;;;5.65;0.60;;;;;;;6.57;54.69;101341.78;5048567;27;97151;-74
2023/03/28 01:14:15;;;;;;;4.00;0.40;;;;;;;6.42;54.80;101348.97;5051055;27;99104;-74
2023/03/28 01:16:46;;;;;;;3.40;0.40;;;;;;;6.47;54.57;101342.78;5053813;27;98856;-74
2023/03/28 01:19:25;;;;;;;5.68;0.47;;;;;;;6.29;55.59;101348.19;5061334;27;97231;-73
2023/03/28 01:22:18;;;;;;;1.90;0.25;;;;;;;6.43;54.39;101350.72;5049286;27;96974;-74
2023/03/28 01:25:16;;;;;;;2.83;0.40;;;;;;;6.45;54.73;101360.28;5055684;27;98936;-73
2023/03/28 01:27:50;;;;;;;5.07;0.43;;;;;;;6.61;54.61;101369.78;5050888;27;101609;-73
2023/03/28 01:30:39;;;;;;;5.47;0.88;;;;;;;6.66;54.22;101370.59;5049617;27;96762;-74
2023/03/28 01:34:05;;;;;;;2.70;0.43;;;;;;;6.75;53.67;101375.78;5057036;27;97089;-74
2023/03/28 01:36:57;;;;;;;2.40;0.38;;;;;;;6.83;53.77;101372.22;4975809;28;99385;-74
2023/03/28 01:39:42;;;;;;;2.67;0.30;;;;;;;6.93;53.42;101366.81;4984202;28;98907;-75
2023/03/28 01:42:20;;;;;;;2.35;0.47;;;;;;;6.89;53.78;101385.28;5040515;27;96881;-74
2023/03/28 01:44:52;;;;;;;2.60;0.47;;;;;;;7.27;53.35;101385.72;5059841;27;96824;-74
2023/03/28 01:47:26;;;;;;;3.47;0.45;;;;;;;7.15;53.55;101384.09;5047730;27;98954;-75
2023/03/28 01:50:02;;;;;;;2.63;0.60;;;;;;;7.21;53.15;101388.44;5055057;27;97719;-75
2023/03/28 01:52:36;;;;;;;2.92;0.60;;;;;;;7.38;53.08;101389.09;5055893;27;96876;-75
2023/03/28 01:55:09;;;;;;;3.90;0.60;;;;;;;7.29;53.10;101389.19;5062743;27;97260;-74
2023/03/28 01:57:41;;;;;;;4.72;0.52;;;;;;;7.25;53.84;101398.00;5052286;27;99015;-73
2023/03/28 02:00:11;;;;;;;4.03;0.95;;;;;;;7.27;54.20;101404.13;5055853;27;99385;-73
2023/03/28 02:02:43;;;;;;;5.95;0.50;;;;;;;7.05;55.51;101419.25;5058268;27;96969;-74
2023/03/28 02:05:14;;;;;;;5.50;1.42;;;;;;;7.06;56.84;101420.13;5056072;27;98615;-73
2023/03/28 02:07:44;;;;;;;7.25;0.88;;;;;;;7.10;57.01;101429.69;5058643;27;99002;-74
2023/03/28 02:10:14;;;;;;;5.03;0.50;;;;;;;7.11;57.05;101424.44;5051918;27;99305;-74
2023/03/28 02:12:47;;;;;;;2.22;0.68;;;;;;;6.99;57.44;101421.06;5054620;27;97353;-75
2023/03/28 02:15:16;;;;;;;2.45;0.40;;;;;;;6.86;57.58;101427.31;5051901;27;97333;-74
2023/03/28 02:17:51;;;;;;;7.95;0.80;;;;;;;6.96;56.93;101426.34;5058585;27;98876;-74
2023/03/28 02:20:21;;;;;;;7.75;0.90;;;;;;;7.12;57.32;101427.94;5049309;27;101007;-73
2023/03/28 02:22:55;;;;;;;4.65;0.80;;;;;;;7.13;57.49;101432.31;5060331;27;97192;-75
2023/03/28 02:25:22;;;;;;;4.63;0.90;;;;;;;7.23;57.08;101426.06;5057624;27;96728;-73
2023/03/28 02:27:54;;;;;;;6.40;1.73;;;;;;;7.01;56.78;101433.31;5060197;27;100553;-73
2023/03/28 02:30:21;;;;;;;7.32;0.88;;;;;;;6.91;56.53;101433.41;5055531;27;101048;-75
2023/03/28 02:32:50;;;;;;;4.50;0.65;;;;;;;6.89;55.83;101428.19;5060157;27;96947;-73
2023/03/28 02:35:21;;;;;;;3.30;0.50;;;;;;;6.59;55.94;101434.56;5061025;27;96954;-74
2023/03/28 02:37:55;;;;;;;4.45;0.77;;;;;;;6.51;55.82;101431.13;5057064;27;100805;-74
2023/03/28 02:40:36;;;;;;;2.92;0.60;;;;;;;6.59;55.72;101438.94;5056783;27;101525;-76
2023/03/28 02:43:29;;;;;;;5.28;0.77;;;;;;;6.65;55.55;101434.50;5056622;27;97805;-75
2023/03/28 02:46:10;;;;;;;3.38;0.50;;;;;;;6.47;55.02;101434.66;5054684;27;96759;-74
2023/03/28 02:48:55;;;;;;;5.22;0.93;;;;;;;6.67;53.37;101429.25;5055572;27;97816;-74
2023/03/28 02:51:30;;;;;;;2.28;0.43;;;;;;;6.62;54.12;101438.94;5056030;27;99221;-74
2023/03/28 02:54:11;;;;;;;4.45;0.30;;;;;;;6.69;52.80;101453.75;5063886;27;97529;-73
2023/03/28 02:56:44;;;;;;;9.57;0.85;;;;;;;6.86;52.46;101450.97;5063662;27;97673;-74
2023/03/28 02:59:16;;;;;;;4.38;0.90;;;;;;;6.88;51.89;101455.34;5060289;27;98176;-74
2023/03/28 03:01:43;;;;;;;4.00;1.02;;;;;;;6.96;51.52;101460.50;5057817;27;97777;-74
2023/03/28 03:04:12;;;;;;;3.17;1.08;;;;;;;7.10;51.72;101463.88;5060062;27;96933;-75
2023/03/28 03:06:38;;;;;;;1.52;0.70;;;;;;;7.13;51.51;101463.84;5051910;27;99091;-74
2023/03/28 03:09:07;;;;;;;1.98;0.63;;;;;;;7.36;51.95;101474.97;5059130;27;98913;-74
2023/03/28 03:11:34;;;;;;;3.15;0.55;;;;;;;7.19;51.54;101477.81;5054207;27;98209;-75
2023/03/28 03:14:00;;;;;;;2.00;0.47;;;;;;;7.35;51.26;101478.50;5056986;27;99116;-74
2023/03/28 03:16:27;;;;;;;3.47;0.70;;;;;;;7.20;51.79;101483.94;5054158;27;96928;-74
2023/03/28 03:18:54;;;;;;;2.17;0.70;;;;;;;7.08;51.73;101487.56;5058885;27;98627;-75
2023/03/28 03:21:22;;;;;;;2.00;0.63;;;;;;;6.86;52.42;101495.63;5055834;27;98912;-74
2023/03/28 03:23:48;;;;;;;2.45;0.47;;;;;;;6.76;53.56;101494.84;5058053;27;96947;-74
2023/03/28 03:26:16;;;;;;;2.45;0.70;;;;;;;6.77;53.46;101500.06;5054363;27;97489;-75
2023/03/28 03:28:44;;;;;;;2.08;0.60;;;;;;;6.46;54.54;101495.06;5061332;27;98651;-74
2023/03/28 03:31:10;;;;;;;4.93;0.80;;;;;;;6.56;54.86;101495.00;5061492;27;98743;-75
2023/03/28 03:33:37;;;;;;;3.97;0.98;;;;;;;6.44;55.36;101502.06;5056194;27;98262;-78
2023/03/28 03:36:04;;;;;;;4.03;0.80;;;;;;;6.40;55.51;101509.09;5062252;27;97044;-75
2023/03/28 03:38:30;;;;;;;3.20;1.15;;;;;;;6.59;55.32;101515.09;5053980;27;99117;-74
2023/03/28 03:40:57;;;;;;;4.97;1.08;;;;;;;6.75;55.01;101522.00;5057249;27;100477;-74
2023/03/28 03:43:26;;;;;;;4.40;0.90;;;;;;;6.71;54.97;101530.75;5054194;27;97549;-74
2023/03/28 03:45:53;;;;;;;10.40;1.52;;;;;;;6.69;55.26;101528.19;5051191;27;97063;-74
2023/03/28 03:48:19;;;;;;;5.40;0.90;;;;;;;6.60;55.45;101535.22;5054425;27;99508;-74
2023/03/28 03:50:45;;;;;;;4.50;0.95;;;;;;;6.64;55.59;101542.19;5058611;27;99141;-74
2023/03/28 03:53:12;;;;;;;7.72;0.93;;;;;;;6.77;55.07;101534.22;5055532;27;96801;-74
2023/03/28 03:55:39;;;;;;;3.30;0.98;;;;;;;6.75;54.86;101536.00;5057364;27;97311;-74
2023/03/28 03:58:05;;;;;;;7.00;1.10;;;;;;;6.40;55.58;101530.09;5055313;27;99338;-74
2023/03/28 04:00:33;;;;;;;4.68;0.93;;;;;;;6.27;56.04;101544.19;5049988;27;98884;-75
2023/03/28 04:03:00;;;;;;;7.60;1.45;;;;;;;6.39;56.09;101546.72;5056893;27;96836;-75
2023/03/28 04:05:26;;;;;;;3.35;1.27;;;;;;;6.34;55.81;101543.28;5062104;27;96904;-74
2023/03/28 04:07:53;;;;;;;4.72;0.80;;;;;;;6.45;56.17;101545.81;5055407;27;98120;-75
2023/03/28 04:10:19;;;;;;;9.07;1.00;;;;;;;6.47;56.08;101551.94;5051543;27;98785;-74
2023/03/28 04:12:46;;;;;;;6.05;1.35;;;;;;;6.56;55.54;101555.41;5064780;27;97151;-75
2023/03/28 04:15:12;;;;;;;4.15;0.95;;;;;;;6.47;55.51;101557.19;5058977;27;97039;-75
2023/03/28 04:17:40;;;;;;;2.80;0.70;;;;;;;6.23;55.67;101566.09;5053598;27;99518;-75
2023/03/28 04:20:11;;;;;;;6.50;1.20;;;;;;;6.27;55.95;101576.53;5057988;27;98923;-74
2023/03/28 04:22:37;;;;;;;6.43;1.40;;;;;;;6.17;56.08;101579.22;5059299;27;98843;-75
2023/03/28 04:25:04;;;;;;;8.52;0.85;;;;;;;6.23;55.82;101585.31;5056442;27;99122;-74
2023/03/28 04:27:30;;;;;;;7.20;1.05;;;;;;;6.30;55.80;101592.25;5054946;27;101659;-74
2023/03/28 04:29:59;;;;;;;4.82;0.82;;;;;;;6.50;54.96;101591.31;5054719;27;98919;-74
2023/03/28 04:32:25;;;;;;;6.90;1.00;;;;;;;6.26;55.65;101592.28;5053117;27;97642;-76
2023/03/28 04:34:53;;;;;;;4.82;1.40;;;;;;;6.28;56.09;101615.03;5051134;27;97160;-75
2023/03/28 04:37:20;;;;;;;8.45;1.08;;;;;;;6.21;55.35;101615.06;5057506;27;98814;-75
2023/03/28 04:39:47;;;;;;;6.07;1.23;;;;;;;6.07;56.19;101617.75;5051942;27;101712;-74
2023/03/28 04:42:14;;;;;;;8.73;0.90;;;;;;;6.19;55.79;101622.06;5059925;27;96957;-75
2023/03/28 04:44:40;;;;;;;8.57;1.20;;;;;;;5.99;56.18;101633.50;5054137;27;97226;-74
2023/03/28 04:47:10;;;;;;;5.20;1.00;;;;;;;5.84;56.94;101641.38;5050255;27;99059;-75
2023/03/28 04:49:37;;;;;;;6.22;0.90;;;;;;;6.12;55.97;101630.84;5055494;27;99464;-75
2023/03/28 04:52:05;;;;;;;2.97;0.80;;;;;;;6.00;56.23;101634.38;5055122;27;96749;-75
2023/03/28 04:54:31;;;;;;;7.60;1.20;;;;;;;5.92;56.88;101650.13;5054944;27;97201;-74
2023/03/28 04:56:58;;;;;;;3.17;0.80;;;;;;;6.26;55.82;101640.41;5049023;27;98842;-75
2023/03/28 04:59:24;;;;;;;6.03;0.75;;;;;;;6.15;55.81;101647.47;5051565;27;98818;-76
2023/03/28 05:01:54;;;;;;;4.38;1.05;;;;;;;6.00;55.80;101655.38;5051189;27;96918;-76
2023/03/28 05:04:22;;;;;;;5.45;1.10;;;;;;;5.92;56.16;101654.50;5057344;27;96871;-71
2023/03/28 05:06:50;;;;;;;3.72;0.60;;;;;;;6.15;55.39;101670.19;5055037;27;98245;-72
2023/03/28 05:09:18;;;;;;;3.45;0.90;;;;;;;5.78;56.08;101664.97;5053176;27;97806;-70
2023/03/28 05:11:46;;;;;;;3.50;0.88;;;;;;;6.14;55.64;101668.44;5055989;27;96833;-70
2023/03/28 05:14:12;;;;;;;3.85;1.25;;;;;;;6.25;55.83;101666.66;5053959;27;97439;-70
2023/03/28 05:16:39;;;;;;;12.65;0.90;;;;;;;6.42;55.00;101674.50;5050271;27;98965;-72
2023/03/28 05:19:05;;;;;;;2.95;0.93;;;;;;;6.43;54.56;101682.38;5058802;27;98916;-71
2023/03/28 05:21:32;;;;;;;2.38;0.98;;;;;;;6.45;54.33;101696.34;5048933;27;98031;-71
2023/03/28 05:23:59;;;;;;;8.18;1.23;;;;;;;6.51;54.40;101691.06;5052388;27;97600;-71
2023/03/28 05:26:26;;;;;;;5.20;1.10;;;;;;;6.40;56.48;101698.13;5055923;27;98107;-71
2023/03/28 05:28:53;;;;;;;5.10;1.00;;;;;;;6.39;55.33;101701.63;5058549;27;98864;-70
2023/03/28 05:31:20;;;;;;;7.32;1.00;;;;;;;6.28;55.00;101703.41;5054195;27;97223;-70
2023/03/28 05:33:46;;;;;;;4.78;0.80;;;;;;;6.27;54.09;101705.16;5058549;27;96890;-72
2023/03/28 05:36:13;;;;;;;4.82;1.55;;;;;;;6.33;53.78;101699.00;5045872;27;101873;-71
2023/03/28 05:38:40;;;;;;;3.85;1.00;;;;;;;6.36;53.90;101717.41;5051782;27;99251;-73
2023/03/28 05:41:07;;;;;;;11.30;2.75;;;;;;;6.31;53.24;101708.63;5052515;27;97141;-73
2023/03/28 05:43:34;;;;;;;4.70;1.63;;;;;;;6.32;53.70;101721.75;5057380;27;99370;-71
2023/03/28 05:46:01;;;;;;;8.38;2.25;;;;;;;6.63;53.18;101730.41;5053512;27;98826;-71
2023/03/28 05:48:27;;;;;;;6.45;1.80;;;;;;;6.81;52.95;101726.84;5047609;27;99556;-71
2023/03/28 05:50:54;;;;;;;4.78;1.00;;;;;;;6.91;52.14;101725.03;5056595;27;96797;-72
2023/03/28 05:53:20;;;;;;;3.58;1.20;;;;;;;6.70;52.30;101732.13;5047967;27;97212;-71
2023/03/28 05:55:48;;;;;;;6.55;1.10;;;;;;;6.51;53.07;101743.59;5048019;27;101818;-71
2023/03/28 05:58:16;;;;;;;5.85;1.23;;;;;;;6.83;52.59;101738.22;5061057;27;98202;-70
2023/03/28 06:00:44;;;;;;;3.45;0.90;;;;;;;6.54;52.66;101742.72;5061240;27;96782;-73
2023/03/28 06:03:21;;;;;;;5.78;1.30;;;;;;;6.72;52.85;101758.41;5061806;27;97329;-71
2023/03/28 06:05:48;;;;;;;5.07;1.48;;;;;;;6.40;52.91;101748.88;5051831;27;97591;-71
2023/03/28 06:08:14;;;;;;;5.63;1.30;;;;;;;6.32;53.05;101753.25;5058479;27;101864;-72
2023/03/28 06:10:41;;;;;;;2.83;0.95;;;;;;;6.11;54.63;101755.03;5053709;27;96930;-71
2023/03/28 06:13:07;;;;;;;20.83;8.05;;;;;;;6.66;53.51;101768.94;5057082;27;97864;-72
2023/03/28 06:15:34;;;;;;;10.02;2.67;;;;;;;6.75;51.88;101764.53;5058503;27;99245;-72
2023/03/28 06:18:01;;;;;;;8.95;1.30;;;;;;;6.77;51.87;101768.00;5054024;27;99914;-72
2023/03/28 06:20:28;;;;;;;6.30;1.02;;;;;;;6.94;51.87;101778.47;5058255;27;98299;-72
2023/03/28 06:22:57;;;;;;;3.40;1.35;;;;;;;7.14;51.49;101776.63;5060215;27;97152;-72
2023/03/28 06:25:23;;;;;;;5.75;1.13;;;;;;;7.26;50.78;101778.31;5055715;27;99458;-72
2023/03/28 06:27:50;;;;;;;3.40;1.17;;;;;;;7.30;50.16;101764.25;5057667;27;101465;-72
2023/03/28 06:30:16;;;;;;;5.40;1.00;;;;;;;7.09;50.51;101775.75;5056627;27;96841;-71
2023/03/28 06:32:43;;;;;;;2.75;1.40;;;;;;;7.09;51.05;101788.00;5052676;27;97632;-73
2023/03/28 06:35:10;;;;;;;3.88;1.13;;;;;;;7.21;50.23;101785.34;5051685;27;99084;-72
2023/03/28 06:37:37;;;;;;;2.97;1.00;;;;;;;7.14;50.47;101794.16;5055111;27;99208;-72
2023/03/28 06:40:04;;;;;;;4.18;1.15;;;;;;;7.36;50.11;101787.88;5053409;27;96845;-72
2023/03/28 06:42:31;;;;;;;5.68;1.08;;;;;;;7.56;49.23;101793.88;5061100;27;97026;-73
2023/03/28 06:44:57;;;;;;;5.05;1.02;;;;;;;7.41;48.77;101794.00;5057027;27;99192;-72
2023/03/28 06:47:24;;;;;;;11.48;1.33;;;;;;;7.91;48.44;101793.63;5062103;27;98928;-72
2023/03/28 06:49:50;;;;;;;5.85;1.08;;;;;;;7.73;48.07;101800.81;5052860;27;96754;-72
2023/03/28 06:52:18;;;;;;;4.10;1.25;;;;;;;7.61;48.03;101799.13;5059170;27;97150;-72
2023/03/28 06:54:45;;;;;;;6.55;1.00;;;;;;;7.55;48.26;101810.53;5054155;27;98694;-72
2023/03/28 06:57:11;;;;;;;5.97;1.10;;;;;;;7.57;48.17;101807.91;5067563;27;97527;-72
2023/03/28 06:59:38;;;;;;;2.38;0.95;;;;;;;7.58;48.45;101804.41;5056248;27;97136;-72
2023/03/28 07:02:04;;;;;;;3.53;1.15;;;;;;;7.83;47.45;101810.38;5057293;27;97283;-70
2023/03/28 07:04:31;;;;;;;3.13;0.90;;;;;;;7.96;47.58;101817.28;5057045;27;98725;-73
2023/03/28 07:06:58;;;;;;;6.25;0.98;;;;;;;7.93;46.86;101817.31;5059798;27;99197;-72
2023/03/28 07:09:28;;;;;;;3.58;1.42;;;;;;;8.23;46.31;101824.09;5056528;27;96846;-73
2023/03/28 07:11:55;;;;;;;7.43;1.13;;;;;;;8.26;46.19;101822.31;5055627;27;97187;-73
2023/03/28 07:14:21;;;;;;;2.28;0.88;;;;;;;8.36;46.33;101831.91;5058163;27;99247;-72
2023/03/28 07:16:48;;;;;;;4.35;1.00;;;;;;;8.83;45.04;101829.66;5051771;27;99086;-71
2023/03/28 07:19:17;;;;;;;5.60;1.33;;;;;;;9.29;43.49;101822.94;5056576;27;96815;-77
2023/03/28 07:21:43;;;;;;;7.15;1.10;;;;;;;9.20;42.55;101828.31;5059777;27;97105;-78
2023/03/28 07:24:10;;;;;;;3.97;1.02;;;;;;;9.18;42.34;101831.00;5057380;27;100368;-77
2023/03/28 07:26:39;;;;;;;6.72;0.93;;;;;;;9.14;42.66;101826.66;5057076;27;97694;-76
2023/03/28 07:29:05;;;;;;;2.35;0.80;;;;;;;9.14;42.85;101837.19;5050415;27;98808;-76
2023/03/28 07:31:32;;;;;;;4.55;1.05;;;;;;;9.36;43.24;101839.56;5059180;27;96827;-76
2023/03/28 07:33:58;;;;;;;4.35;1.95;;;;;;;9.43;42.46;101838.59;5054329;27;99069;-77
2023/03/28 07:36:27;;;;;;;6.45;1.25;;;;;;;9.16;42.24;101840.69;5055850;27;98898;-77
2023/03/28 07:38:53;;;;;;;4.88;1.70;;;;;;;9.24;43.15;101850.28;5051967;27;96816;-77
2023/03/28 07:41:21;;;;;;;3.80;1.48;;;;;;;9.37;42.24;101851.88;5056891;27;97030;-77
2023/03/28 07:43:49;;;;;;;3.97;0.85;;;;;;;9.00;40.29;101852.31;5064306;27;99115;-78
2023/03/28 07:46:16;;;;;;;3.88;0.82;;;;;;;9.13;40.50;101853.91;5056161;27;97825;-78
2023/03/28 07:48:45;;;;;;;1.77;0.68;;;;;;;9.27;40.39;101855.50;5057096;27;97113;-76
2023/03/28 07:51:12;;;;;;;11.48;1.30;;;;;;;9.41;39.60;101859.72;5059369;27;96972;-77
2023/03/28 07:53:39;;;;;;;4.07;1.02;;;;;;;9.23;39.79;101869.63;5055634;27;99284;-77
2023/03/28 07:56:09;;;;;;;5.05;0.68;;;;;;;9.56;38.41;101862.16;5057925;27;100144;-78
2023/03/28 07:58:35;;;;;;;1.60;0.70;;;;;;;9.87;37.62;101869.63;5051162;27;96934;-77
2023/03/28 08:01:06;;;;;;;1.42;0.95;;;;;;;9.98;36.94;101860.63;5059333;27;97076;-79
2023/03/28 08:03:32;;;;;;;3.10;1.27;;;;;;;10.42;36.66;101874.06;5053291;27;100201;-78
2023/03/28 08:06:01;;;;;;;4.65;0.77;;;;;;;10.50;36.21;101873.03;5057381;27;100357;-78
2023/03/28 08:08:29;;;;;;;19.63;1.92;;;;;;;10.59;36.42;101877.28;5051385;27;97581;-79
2023/03/28 08:10:55;;;;;;;1.65;0.80;;;;;;;10.13;36.26;101882.44;5053565;27;99742;-78
2023/03/28 08:13:21;;;;;;;3.83;1.00;;;;;;;10.38;36.33;101889.09;5056415;27;99082;-77
2023/03/28 08:15:49;;;;;;;100.70;6.97;;;;;;;10.26;36.31;101890.16;5058872;27;99561;-79
2023/03/28 08:18:19;;;;;;;72.43;4.45;;;;;;;10.34;36.04;101885.66;5056095;27;96743;-79
2023/03/28 08:20:46;;;;;;;22.15;1.42;;;;;;;10.48;35.28;101888.06;5058039;27;97888;-78
2023/03/28 08:23:13;;;;;;;4.32;1.05;;;;;;;10.74;35.61;101893.75;5057791;27;99217;-79
2023/03/28 08:25:39;;;;;;;7.38;1.02;;;;;;;11.25;34.99;101898.94;5053018;27;99885;-78
2023/03/28 08:28:06;;;;;;;3.80;0.60;;;;;;;10.87;34.26;101899.69;5048976;27;97182;-77
2023/03/28 08:30:32;;;;;;;3.13;0.70;;;;;;;10.74;34.19;101892.88;5054541;27;97694;-77
2023/03/28 08:32:58;;;;;;;3.28;0.80;;;;;;;10.89;33.85;101899.66;5060645;27;98171;-78
2023/03/28 08:35:26;;;;;;;4.80;0.98;;;;;;;10.07;35.22;101888.69;5053490;27;98794;-76
2023/03/28 08:37:52;;;;;;;3.60;0.90;;;;;;;10.22;35.79;101888.50;5056464;27;97383;-77
2023/03/28 08:40:20;;;;;;;2.42;1.10;;;;;;;10.70;34.75;101892.06;5052112;27;97004;-76
2023/03/28 08:43:02;;;;;;;5.22;1.25;;;;;;;11.10;34.14;101896.59;5055106;27;97895;-78
2023/03/28 08:45:42;;;;;;;7.65;3.25;;;;;;;11.12;33.67;101900.09;5060063;27;98748;-71
2023/03/28 08:48:17;;;;;;;3.55;1.05;;;;;;;11.16;33.40;101907.06;5051648;27;97008;-74
2023/03/28 08:50:50;;;;;;;29.55;1.88;;;;;;;10.96;33.06;101898.66;5049727;27;97095;-74
2023/03/28 08:53:23;;;;;;;57.00;4.68;;;;;;;11.37;32.28;101909.28;5064677;27;97873;-74
2023/03/28 08:55:51;;;;;;;11.93;1.40;;;;;;;10.74;32.53;101909.63;5050647;27;98956;-73
2023/03/28 08:58:20;;;;;;;3.17;0.82;;;;;;;10.97;32.60;101916.25;5049179;27;97498;-73
2023/03/28 09:00:47;;;;;;;2.75;0.60;;;;;;;11.10;32.24;101917.75;5054620;27;96854;-71
2023/03/28 09:03:17;;;;;;;2.80;0.80;;;;;;;11.06;32.12;101927.53;5053360;27;98968;-72
2023/03/28 09:05:48;;;;;;;1.05;0.60;;;;;;;10.54;32.40;101924.94;5056148;27;99800;-77
2023/03/28 09:08:28;;;;;;;2.88;0.90;;;;;;;11.27;31.89;101918.31;5057449;27;97047;-77
2023/03/28 09:11:00;;;;;;;2.65;0.60;;;;;;;10.71;32.28;101928.16;5053893;27;96966;-77
2023/03/28 09:13:37;;;;;;;1.65;0.35;;;;;;;10.43;32.11;101924.25;5051423;27;99384;-77
2023/03/28 09:16:25;;;;;;;4.80;0.63;;;;;;;10.82;31.43;101935.06;5050157;27;98840;-77
2023/03/28 09:19:20;;;;;;;4.18;0.57;;;;;;;11.00;31.40;101943.53;5059066;27;96928;-76
2023/03/28 09:22:02;;;;;;;4.05;0.90;;;;;;;10.86;30.85;101936.72;5057244;27;96877;-78
2023/03/28 09:24:43;;;;;;;4.43;0.47;;;;;;;10.82;31.02;101943.00;5063667;27;98939;-76
2023/03/28 09:27:18;;;;;;;0.73;0.50;;;;;;;10.43;30.82;101947.16;5063039;27;98831;-77
2023/03/28 09:29:47;;;;;;;3.45;0.70;;;;;;;10.28;31.93;101941.22;5062568;27;96828;-77
2023/03/28 09:32:22;;;;;;;1.65;0.60;;;;;;;10.23;30.85;101947.47;5069934;27;98555;-76
2023/03/28 09:34:50;;;;;;;1.48;0.45;;;;;;;10.34;31.69;101948.19;5066438;27;99299;-77
2023/03/28 09:37:28;;;;;;;2.70;0.45;;;;;;;10.85;30.70;101949.06;5055954;27;100347;-75
2023/03/28 09:39:57;;;;;;;2.20;0.43;;;;;;;10.94;29.89;101958.63;5054406;27;96857;-78
2023/03/28 09:42:32;;;;;;;2.13;0.20;;;;;;;11.05;29.67;101951.38;5054069;27;96828;-76
2023/03/28 09:45:06;;;;;;;1.73;0.45;;;;;;;10.97;29.75;101958.56;5054976;27;98727;-76
2023/03/28 09:47:33;;;;;;;0.73;0.30;;;;;;;11.06;29.95;101958.41;5049845;27;99262;-76
2023/03/28 09:50:00;;;;;;;0.70;0.30;;;;;;;11.01;29.87;101966.44;5048931;27;96724;-77
2023/03/28 09:52:30;;;;;;;2.58;0.77;;;;;;;11.36;29.13;101960.47;5051310;27;96900;-77
2023/03/28 09:54:56;;;;;;;1.80;0.65;;;;;;;11.85;28.76;101963.03;5051363;27;100294;-78
2023/03/28 09:57:23;;;;;;;5.63;0.77;;;;;;;11.38;28.38;101971.03;5058963;27;98674;-79
2023/03/28 09:59:49;;;;;;;1.13;0.40;;;;;;;11.15;28.08;101968.84;5058103;27;96992;-78
2023/03/28 10:02:27;;;;;;;1.90;0.70;;;;;;;11.69;28.28;101965.97;5055303;27;96796;-77
2023/03/28 10:04:53;;;;;;;6.25;0.50;;;;;;;11.68;28.56;101967.78;5050786;27;99348;-78
2023/03/28 10:07:33;;;;;;;2.45;0.77;;;;;;;11.69;27.84;101977.44;5061701;27;99351;-76
2023/03/28 10:10:09;;;;;;;4.35;0.65;;;;;;;11.40;28.21;101967.47;5060584;27;96590;-78
2023/03/28 10:12:40;;;;;;;0.90;0.38;;;;;;;10.87;28.92;101972.84;5072284;27;96793;-76
2023/03/28 10:15:38;;;;;;;1.08;0.40;;;;;;;11.08;28.78;101968.06;5056910;27;98976;-76
2023/03/28 10:18:05;;;;;;;1.75;0.40;;;;;;;11.34;28.79;101972.88;5054608;27;99317;-79
2023/03/28 10:20:36;;;;;;;3.97;0.35;;;;;;;11.26;28.49;101966.84;5057573;27;96746;-77
2023/03/28 10:23:05;;;;;;;1.40;0.40;;;;;;;11.26;28.76;101971.25;5054656;27;97239;-78
2023/03/28 10:25:40;;;;;;;3.65;0.50;;;;;;;11.82;28.30;101981.63;5051646;27;99054;-77
2023/03/28 10:28:08;;;;;;;2.00;0.70;;;;;;;11.92;27.71;101979.66;5056462;27;100689;-76
2023/03/28 10:30:36;;;;;;;2.75;0.43;;;;;;;11.58;28.23;101977.69;5062367;27;96804;-77
2023/03/28 10:33:22;;;;;;;4.55;0.77;;;;;;;12.00;27.86;101990.09;5047765;27;96999;-78
2023/03/28 10:35:56;;;;;;;3.27;1.10;;;;;;;11.53;27.72;101981.31;5056316;27;98600;-77
2023/03/28 10:38:26;;;;;;;4.28;0.63;;;;;;;11.75;27.53;101982.66;5052175;27;98581;-77
2023/03/28 10:40:58;;;;;;;5.15;0.40;;;;;;;11.79;26.99;101976.41;5055118;27;97356;-78
2023/03/28 10:43:32;;;;;;;1.25;0.50;;;;;;;11.80;27.01;101979.94;5052542;27;97195;-77
2023/03/28 10:46:02;;;;;;;0.90;0.43;;;;;;;11.62;26.92;101980.28;5057142;27;100736;-78
2023/03/28 10:48:32;;;;;;;4.80;0.85;;;;;;;11.38;27.69;101977.19;5060241;27;99169;-77
2023/03/28 10:51:07;;;;;;;6.53;1.10;;;;;;;11.67;27.74;101986.34;5058096;27;96799;-76
2023/03/28 10:53:59;;;;;;;1.23;0.52;;;;;;;11.40;27.69;101980.69;5064072;27;97307;-79
2023/03/28 10:56:32;;;;;;;3.97;0.47;;;;;;;11.44;28.42;101982.38;5052764;27;99056;-79
2023/03/28 10:59:15;;;;;;;1.75;0.60;;;;;;;11.63;28.11;101977.56;5059139;27;97516;-77
2023/03/28 11:01:53;;;;;;;4.45;0.57;;;;;;;11.73;27.68;101983.56;5051048;27;96912;-79
2023/03/28 11:04:31;;;;;;;3.28;0.88;;;;;;;11.79;27.91;101983.47;5056795;27;97414;-77
2023/03/28 11:07:05;;;;;;;1.77;0.52;;;;;;;11.38;28.43;101985.13;5050625;27;98914;-77
2023/03/28 11:09:41;;;;;;;5.45;0.50;;;;;;;11.69;28.08;101988.03;5058360;27;101317;-77
2023/03/28 11:12:17;;;;;;;1.65;0.32;;;;;;;11.86;27.08;101993.91;5055484;27;96905;-77
2023/03/28 11:14:59;;;;;;;1.05;0.30;;;;;;;11.90;26.97;101998.22;5056449;27;97123;-77
2023/03/28 11:17:36;;;;;;;1.25;0.50;;;;;;;12.05;27.88;101991.72;5057072;27;98174;-78
2023/03/28 11:20:27;;;;;;;0.70;0.50;;;;;;;11.91;26.84;101992.03;5058416;27;101149;-77
2023/03/28 11:23:24;;;;;;;1.75;0.30;;;;;;;11.55;27.54;101996.25;5054352;27;97170;-76
2023/03/28 11:25:56;;;;;;;;;;;;;;;11.75;27.26;101997.69;5032550;27;97088;-78
2023/03/28 11:28:30;;;;;;;0.70;0.40;;;;;;;11.77;27.18;101998.50;5053854;27;99926;-72
2023/03/28 11:30:59;;;;;;;1.50;0.40;;;;;;;11.74;27.50;101988.88;5051810;27;99141;-71
2023/03/28 11:33:31;;;;;;;2.13;0.50;;;;;;;11.80;26.88;101996.69;5053051;27;96820;-73
2023/03/28 11:36:03;;;;;;;2.33;0.30;;;;;;;11.62;26.50;101999.66;5052940;27;96772;-71
2023/03/28 11:38:35;;;;;;;1.48;0.50;;;;;;;11.90;26.45;102003.53;5059169;27;99024;-73
2023/03/28 11:41:10;;;;;;;1.13;0.40;;;;;;;11.78;26.37;102006.44;5054257;27;100906;-72
2023/03/28 11:43:44;;;;;;;2.20;0.30;;;;;;;11.49;25.88;101998.16;5062812;27;97612;-71
2023/03/28 11:46:16;;;;;;;1.83;0.50;;;;;;;11.90;26.18;102000.00;5057986;27;98361;-72